Flamingo Lodge, Florida
Current Conditions -  °F | °C
As of 2:58 PM on Sunday 23 Nov 2014 (Local Time) from KHST Reporting Station
Few Clouds Few Clouds  
Wind Chill: 82°   Ceiling: Unl
Heat Index: 87°   Visibility: 10mi
Dew Point: 74°   Wind: 13mph
Humidity: 77%   Direction: 130°SE
Pressure: 29.92"   Gusts: NA
Location:  25.3018°N, 80.7387°W
Report Text: KHST 231958Z AUTO 13011KT 10SM FEW018 28/23 A2992 RMK AO2 SLP135 T02760232 $
Loading
Personal Weather Stations






























Interactive Weather Map New forecast layout! Learn more

10-Day Weather Forecast

Advertisements
Track Severe Weather on mobile